createdAt,value
2023-03-05T00:00:47.542Z,121.70
2023-03-05T00:03:16.945Z,118.20
2023-03-05T00:05:44.978Z,115.95
2023-03-05T00:08:12.958Z,122.05
2023-03-05T00:10:41.007Z,129.43
2023-03-05T00:13:08.957Z,128.45
2023-03-05T00:15:42.930Z,132.70
2023-03-05T00:18:10.998Z,128.10
2023-03-05T00:20:40.466Z,117.93
2023-03-05T00:23:08.464Z,121.70
2023-03-05T00:25:36.754Z,118.40
2023-03-05T00:28:05.322Z,116.20
2023-03-05T00:30:33.950Z,131.07
2023-03-05T00:33:02.212Z,126.72
2023-03-05T00:35:30.304Z,122.72
2023-03-05T00:37:59.716Z,116.88
2023-03-05T00:40:27.692Z,118.93
2023-03-05T00:42:55.698Z,110.97
2023-03-05T00:45:23.715Z,120.03
2023-03-05T00:47:51.761Z,115.82
2023-03-05T00:50:19.911Z,117.40
2023-03-05T00:52:47.975Z,113.22
2023-03-05T00:55:17.531Z,123.63
2023-03-05T00:57:45.824Z,114.60
2023-03-05T01:00:15.730Z,112.43
2023-03-05T01:02:43.856Z,115.15
2023-03-05T01:05:13.931Z,113.38
2023-03-05T01:07:42.102Z,113.80
2023-03-05T01:10:11.769Z,111.75
2023-03-05T01:12:41.365Z,114.32
2023-03-05T01:15:09.788Z,113.10
2023-03-05T01:17:37.781Z,111.40
2023-03-05T01:20:07.040Z,111.80
2023-03-05T01:22:35.132Z,110.75
2023-03-05T01:25:03.181Z,109.35
2023-03-05T01:27:31.209Z,115.28
2023-03-05T01:30:00.562Z,109.32
2023-03-05T01:32:28.631Z,114.35
2023-03-05T01:34:56.658Z,114.97
2023-03-05T01:37:24.651Z,115.65
2023-03-05T01:39:52.642Z,109.00
2023-03-05T01:42:21.153Z,111.85
2023-03-05T01:45:04.875Z,110.18
2023-03-05T01:47:32.936Z,112.75
2023-03-05T01:50:01.357Z,113.55
2023-03-05T01:52:33.106Z,109.78
2023-03-05T01:55:04.332Z,105.60
2023-03-05T01:57:36.261Z,113.50
2023-03-05T02:00:10.897Z,111.85
2023-03-05T02:02:42.817Z,112.28
2023-03-05T02:05:14.090Z,111.97
2023-03-05T02:07:43.549Z,109.80
2023-03-05T02:10:21.393Z,114.40
2023-03-05T02:12:51.291Z,110.57
2023-03-05T02:15:21.084Z,117.63
2023-03-05T02:17:49.442Z,116.15
2023-03-05T02:20:19.570Z,117.50
2023-03-05T02:22:48.984Z,112.80
2023-03-05T02:25:20.598Z,118.10
2023-03-05T02:27:55.413Z,124.07
2023-03-05T02:30:25.333Z,116.22
2023-03-05T02:32:53.455Z,112.18
2023-03-05T02:35:22.604Z,119.05
2023-03-05T02:37:52.304Z,112.28
2023-03-05T02:40:20.554Z,117.95
2023-03-05T02:42:49.089Z,118.70
2023-03-05T02:45:17.694Z,121.55
2023-03-05T02:47:45.799Z,115.32
2023-03-05T02:50:13.915Z,123.28
2023-03-05T02:52:42.027Z,117.15
2023-03-05T02:55:15.675Z,112.75
2023-03-05T02:57:45.280Z,115.57
2023-03-05T03:00:14.560Z,113.30
2023-03-05T03:02:42.670Z,118.57
2023-03-05T03:05:11.118Z,120.85
2023-03-05T03:07:39.155Z,114.80
2023-03-05T03:10:08.325Z,114.47
2023-03-05T03:12:40.006Z,114.20
2023-03-05T03:15:09.766Z,114.03
2023-03-05T03:17:38.679Z,115.60
2023-03-05T03:20:09.301Z,116.18
2023-03-05T03:22:37.667Z,112.75
2023-03-05T03:25:06.608Z,116.35
2023-03-05T03:27:34.829Z,119.78
2023-03-05T03:30:04.905Z,124.20
2023-03-05T03:32:33.609Z,116.32
2023-03-05T03:35:01.671Z,116.30
2023-03-05T03:37:29.828Z,114.55
2023-03-05T03:39:58.367Z,118.47
2023-03-05T03:42:26.450Z,112.38
2023-03-05T03:44:54.566Z,121.75
2023-03-05T03:47:23.960Z,115.35
2023-03-05T03:49:55.323Z,128.15
2023-03-05T03:52:23.949Z,120.72
2023-03-05T03:54:53.101Z,118.55
2023-03-05T03:57:21.149Z,112.15
2023-03-05T03:59:50.385Z,119.20
2023-03-05T04:02:18.623Z,112.80
2023-03-05T04:04:48.314Z,114.35
2023-03-05T04:07:16.325Z,104.57
2023-03-05T04:09:44.389Z,106.85
2023-03-05T04:12:17.799Z,115.18
2023-03-05T04:14:46.601Z,109.03
2023-03-05T04:17:14.980Z,106.45
2023-03-05T04:19:43.593Z,107.00
2023-03-05T04:22:13.466Z,102.75
2023-03-05T04:24:41.629Z,103.88
2023-03-05T04:27:10.110Z,102.07
2023-03-05T04:29:38.259Z,109.22
2023-03-05T04:32:07.266Z,109.78
2023-03-05T04:34:35.476Z,104.60
2023-03-05T04:37:03.491Z,102.63
2023-03-05T04:39:32.938Z,105.60
2023-03-05T04:42:00.976Z,100.10
2023-03-05T04:44:29.009Z,106.18
2023-03-05T04:46:57.088Z,105.50
2023-03-05T04:49:25.091Z,106.15
2023-03-05T04:51:53.104Z,97.85
2023-03-05T04:54:21.109Z,104.57
2023-03-05T04:56:50.560Z,97.10
2023-03-05T04:59:18.676Z,100.85
2023-03-05T05:01:46.674Z,102.28
2023-03-05T05:04:14.787Z,106.50
2023-03-05T05:06:42.751Z,96.88
2023-03-05T05:09:10.783Z,103.47
2023-03-05T05:11:38.757Z,102.53
2023-03-05T05:14:08.345Z,106.15
2023-03-05T05:16:36.403Z,104.47
2023-03-05T05:19:04.506Z,102.65
2023-03-05T05:21:33.443Z,98.82
2023-03-05T05:24:01.439Z,103.45
2023-03-05T05:26:29.467Z,101.82
2023-03-05T05:28:57.501Z,102.60
2023-03-05T05:31:26.988Z,104.22
2023-03-05T05:33:55.067Z,99.47
2023-03-05T05:36:23.218Z,106.20
2023-03-05T05:38:51.294Z,99.25
2023-03-05T05:41:20.148Z,96.57
2023-03-05T05:43:48.317Z,118.28
2023-03-05T05:46:18.805Z,99.43
2023-03-05T05:48:48.574Z,103.38
2023-03-05T05:51:18.441Z,100.07
2023-03-05T05:53:47.169Z,100.55
2023-03-05T05:56:16.578Z,98.45
2023-03-05T05:58:47.159Z,98.32
2023-03-05T06:01:17.464Z,93.47
2023-03-05T06:03:45.900Z,95.57
2023-03-05T06:06:16.687Z,97.82
2023-03-05T06:08:45.105Z,93.38
2023-03-05T06:11:13.388Z,102.72
2023-03-05T06:13:41.632Z,103.72
2023-03-05T06:16:12.880Z,98.20
2023-03-05T06:18:41.227Z,105.65
2023-03-05T06:21:12.357Z,78.43
2023-03-05T06:23:42.299Z,102.72
2023-03-05T06:26:11.977Z,103.43
2023-03-05T06:28:40.029Z,102.10
2023-03-05T06:31:09.754Z,112.70
2023-03-05T06:33:38.515Z,75.25
2023-03-05T06:36:09.249Z,100.07
2023-03-05T06:38:38.112Z,109.30
2023-03-05T06:41:11.540Z,105.82
2023-03-05T06:43:42.568Z,117.28
2023-03-05T06:46:13.980Z,104.00
2023-03-05T06:48:43.244Z,104.20
2023-03-05T06:51:15.472Z,85.82
2023-03-05T06:53:43.580Z,106.93
2023-03-05T06:56:14.068Z,105.32
2023-03-05T06:58:42.375Z,104.43
2023-03-05T07:01:10.621Z,114.90
2023-03-05T07:03:39.373Z,105.53
2023-03-05T07:06:09.441Z,118.50
2023-03-05T07:08:37.884Z,108.55
2023-03-05T07:11:13.072Z,124.45
2023-03-05T07:13:41.113Z,115.90
2023-03-05T07:16:11.016Z,125.15
2023-03-05T07:18:39.065Z,120.05
2023-03-05T07:21:08.636Z,122.15
2023-03-05T07:23:37.498Z,122.57
2023-03-05T07:26:06.864Z,126.43
2023-03-05T07:28:36.423Z,122.82
2023-03-05T07:31:06.533Z,124.55
2023-03-05T07:33:37.226Z,133.95
2023-03-05T07:36:06.127Z,123.15
2023-03-05T07:38:34.154Z,120.80
2023-03-05T07:41:04.328Z,125.60
2023-03-05T07:43:32.370Z,127.03
2023-03-05T07:46:04.504Z,139.27
2023-03-05T07:48:32.568Z,132.18
2023-03-05T07:51:03.649Z,129.13
2023-03-05T07:53:31.724Z,128.05
2023-03-05T07:55:59.774Z,135.45
2023-03-05T07:58:27.877Z,134.48
2023-03-05T08:00:56.089Z,134.07
2023-03-05T08:03:25.434Z,128.90
2023-03-05T08:05:53.431Z,142.25
2023-03-05T08:08:21.457Z,130.10
2023-03-05T08:10:49.433Z,132.18
2023-03-05T08:13:17.451Z,131.02
